Time;durP1;ratioP1;P1;durP2;ratioP2;P2;SDS_P1;SDS_P2;PMS_P1;PMS_P2;Temp;Humidity;BMP_temperature;BMP_pressure;BME280_temperature;BME280_humidity;BME280_pressure;Samples;Min_cycle;Max_cycle;Signal;HPM_P1;HPM_P2
2023/05/14 00:00:13;;;;;;;;;;;;;;;14.62;100.00;99602.94;5051387;28;20739;-84
2023/05/14 00:02:38;;;;;;;;;;;;;;;14.64;100.00;99603.59;5052435;28;20011;-83
2023/05/14 00:05:04;;;;;;;;;;;;;;;14.62;100.00;99602.94;5052380;28;19976;-83
2023/05/14 00:07:29;;;;;;;;;;;;;;;14.57;100.00;99599.94;5053578;28;19962;-83
2023/05/14 00:09:55;;;;;;;;;;;;;;;14.61;100.00;99601.28;5055260;28;19931;-84
2023/05/14 00:12:21;;;;;;;;;;;;;;;14.62;100.00;99592.31;5057879;28;19928;-85
2023/05/14 00:14:46;;;;;;;;;;;;;;;14.62;100.00;99592.31;5059620;28;19917;-84
2023/05/14 00:17:11;;;;;;;;;;;;;;;14.61;100.00;99596.78;5062148;28;19920;-86
2023/05/14 00:19:40;;;;;;;;;;;;;;;14.59;100.00;99590.00;5064249;28;19944;-87
2023/05/14 00:22:06;;;;;;;;;;;;;;;14.61;100.00;99591.47;5058851;28;19960;-87
2023/05/14 00:24:31;;;;;;;;;;;;;;;14.61;100.00;99595.97;5056437;28;20046;-85
2023/05/14 00:26:56;;;;;;;;;;;;;;;14.60;100.00;99589.00;5055787;28;19923;-85
2023/05/14 00:29:22;;;;;;;;;;;;;;;14.59;100.00;99592.66;5054038;28;20436;-85
2023/05/14 00:31:47;;;;;;;;;;;;;;;14.55;100.00;99592.16;5053248;28;19927;-86
2023/05/14 00:34:12;;;;;;;;;;;;;;;14.55;100.00;99592.16;5053461;28;19923;-85
2023/05/14 00:36:38;;;;;;;;;;;;;;;14.56;100.00;99588.50;5051899;28;20365;-85
2023/05/14 00:39:03;;;;;;;;;;;;;;;14.53;100.00;99593.31;5053533;28;19916;-85
2023/05/14 00:41:29;;;;;;;;;;;;;;;14.52;100.00;99583.69;5051162;28;19956;-84
2023/05/14 00:43:54;;;;;;;;;;;;;;;14.52;100.00;99591.66;5050830;28;19960;-84
2023/05/14 00:46:20;;;;;;;;;;;;;;;14.49;100.00;99586.69;5048962;28;19927;-83
2023/05/14 00:48:45;;;;;;;;;;;;;;;14.46;100.00;99584.38;5048865;28;20019;-83
2023/05/14 00:51:11;;;;;;;;;;;;;;;14.44;100.00;99583.69;5049321;28;19943;-84
2023/05/14 00:53:36;;;;;;;;;;;;;;;14.43;100.00;99579.41;5049390;28;19917;-83
2023/05/14 00:56:02;;;;;;;;;;;;;;;14.41;100.00;99573.41;5050563;28;19921;-85
2023/05/14 00:58:27;;;;;;;;;;;;;;;14.43;100.00;99582.06;5063663;28;19920;-83
2023/05/14 01:00:52;;;;;;;;;;;;;;;14.43;100.00;99576.75;5048944;28;19943;-84
2023/05/14 01:03:18;;;;;;;;;;;;;;;14.41;100.00;99573.41;5052007;28;20607;-84
2023/05/14 01:05:59;;;;;;;;;;;;;;;14.44;100.00;99578.38;5052649;28;19975;-84
2023/05/14 01:08:30;;;;;;;;;;;;;;;14.40;100.00;99574.41;5054785;28;20273;-85
2023/05/14 01:10:59;;;;;;;;;;;;;;;14.41;100.00;99562.81;5054381;28;20372;-85
2023/05/14 01:13:27;;;;;;;;;;;;;;;14.41;100.00;99574.25;5053006;28;19916;-84
2023/05/14 01:15:54;;;;;;;;;;;;;;;14.43;100.00;99566.94;5053499;28;19920;-85
2023/05/14 01:18:20;;;;;;;;;;;;;;;14.43;100.00;99576.75;5054351;28;20022;-85
2023/05/14 01:20:48;;;;;;;;;;;;;;;14.43;100.00;99571.44;5053701;28;20328;-85
2023/05/14 01:23:13;;;;;;;;;;;;;;;14.41;100.00;99576.06;5054217;28;19916;-85
2023/05/14 01:25:39;;;;;;;;;;;;;;;14.38;100.00;99573.72;5080858;22;19921;-78
2023/05/14 01:28:19;;;;;;;;;;;;;;;14.38;100.00;99563.13;5059224;28;19925;-79
2023/05/14 01:30:50;;;;;;;;;;;;;;;14.37;100.00;99561.44;5061466;28;19924;-78
2023/05/14 01:33:19;;;;;;;;;;;;;;;14.40;100.00;99561.97;5052305;28;20376;-78
2023/05/14 01:35:46;;;;;;;;;;;;;;;14.44;100.00;99557.13;5049980;28;19952;-78
2023/05/14 01:38:12;;;;;;;;;;;;;;;14.43;100.00;99563.47;5051888;28;19963;-78
2023/05/14 01:40:39;;;;;;;;;;;;;;;14.43;100.00;99555.50;5051501;28;20314;-77
2023/05/14 01:43:04;;;;;;;;;;;;;;;14.44;100.00;99565.94;5050732;28;19917;-78
2023/05/14 01:45:30;;;;;;;;;;;;;;;14.39;100.00;99556.81;5075743;28;20363;-78
2023/05/14 01:47:56;;;;;;;;;;;;;;;14.41;100.00;99549.53;5051325;28;19974;-77
2023/05/14 01:50:22;;;;;;;;;;;;;;;14.42;100.00;99545.88;5051537;28;19924;-78
2023/05/14 01:52:48;;;;;;;;;;;;;;;14.40;100.00;99539.91;5050019;28;19917;-78
2023/05/14 01:55:15;;;;;;;;;;;;;;;14.41;100.00;99541.56;5053210;28;19920;-79
2023/05/14 01:57:40;;;;;;;;;;;;;;;14.40;100.00;99540.72;5050008;28;19916;-78
2023/05/14 02:00:06;;;;;;;;;;;;;;;14.40;100.00;99539.91;5047677;28;19962;-78
2023/05/14 02:02:39;;;;;;;;;;;;;;;14.36;100.00;99539.38;5047763;28;19916;-78
2023/05/14 02:05:06;;;;;;;;;;;;;;;14.34;100.00;99541.38;5050235;28;20341;-77
2023/05/14 02:07:32;;;;;;;;;;;;;;;14.29;100.00;99543.69;5051312;28;19926;-79
2023/05/14 02:09:57;;;;;;;;;;;;;;;14.28;100.00;99547.34;5050014;28;19917;-79
2023/05/14 02:12:22;;;;;;;;;;;;;;;14.25;100.00;99542.38;5049918;28;19917;-79
2023/05/14 02:14:48;;;;;;;;;;;;;;;14.25;100.00;99543.22;5049921;28;19927;-79
2023/05/14 02:17:16;;;;;;;;;;;;;;;14.14;100.00;99538.22;5050231;28;20289;-78
2023/05/14 02:19:42;;;;;;;;;;;;;;;14.14;100.00;99538.22;5050646;28;19916;-79
2023/05/14 02:22:08;;;;;;;;;;;;;;;13.91;100.00;99535.38;5075162;28;19912;-79
2023/05/14 02:24:33;;;;;;;;;;;;;;;13.79;100.00;99530.56;5050779;28;19917;-79
2023/05/14 02:26:59;;;;;;;;;;;;;;;13.83;100.00;99531.91;5051244;28;19991;-79
2023/05/14 02:29:25;;;;;;;;;;;;;;;13.77;100.00;99527.25;5051247;28;19927;-79
2023/05/14 02:31:50;;;;;;;;;;;;;;;13.80;100.00;99532.22;5050763;28;19917;-79
2023/05/14 02:34:16;;;;;;;;;;;;;;;13.75;100.00;99523.94;5049582;28;19916;-79
2023/05/14 02:36:42;;;;;;;;;;;;;;;13.78;100.00;99524.41;5050310;28;19921;-79
2023/05/14 02:39:07;;;;;;;;;;;;;;;13.75;100.00;99518.63;5050874;28;19917;-78
2023/05/14 02:41:32;;;;;;;;;;;;;;;13.74;100.00;99516.97;5050949;28;19912;-77
2023/05/14 02:43:58;;;;;;;;;;;;;;;13.72;100.00;99516.31;5051133;28;19916;-78
2023/05/14 02:46:24;;;;;;;;;;;;;;;13.59;100.00;99511.47;5051167;28;19920;-76
2023/05/14 02:48:49;;;;;;;;;;;;;;;13.53;100.00;99515.63;5049311;28;19928;-78
2023/05/14 02:51:15;;;;;;;;;;;;;;;13.52;100.00;99513.94;5050159;28;20007;-78
2023/05/14 02:53:40;;;;;;;;;;;;;;;13.31;100.00;99510.91;5042904;28;19917;-77
2023/05/14 02:56:06;;;;;;;;;;;;;;;13.01;100.00;99506.16;5057636;28;19982;-76
2023/05/14 02:58:32;;;;;;;;;;;;;;;12.90;100.00;99509.09;5048725;28;19962;-77
2023/05/14 03:00:57;;;;;;;;;;;;;;;12.73;100.00;99506.31;5050574;28;19920;-77
2023/05/14 03:03:23;;;;;;;;;;;;;;;12.80;100.00;99500.41;5074741;28;19916;-77
2023/05/14 03:05:48;;;;;;;;;;;;;;;12.81;100.00;99502.06;5048809;28;19962;-78
2023/05/14 03:08:14;;;;;;;;;;;;;;;12.79;100.00;99504.03;5050341;28;19924;-78
2023/05/14 03:10:39;;;;;;;;;;;;;;;12.78;100.00;99505.03;5049860;28;19917;-78
2023/05/14 03:13:05;;;;;;;;;;;;;;;12.85;100.00;99503.41;5050799;28;20027;-78
2023/05/14 03:15:30;;;;;;;;;;;;;;;12.92;100.00;99504.44;5050372;28;19932;-78
2023/05/14 03:17:55;;;;;;;;;;;;;;;12.92;100.00;99504.44;5049194;28;19924;-78
2023/05/14 03:20:22;;;;;;;;;;;;;;;12.80;100.00;99500.41;5050440;28;19971;-78
2023/05/14 03:22:47;;;;;;;;;;;;;;;12.69;100.00;99497.06;5049572;28;19993;-78
2023/05/14 03:25:13;;;;;;;;;;;;;;;12.63;100.00;99497.69;5049741;28;20327;-78
2023/05/14 03:27:38;;;;;;;;;;;;;;;12.55;100.00;99500.25;5050157;28;20321;-78
2023/05/14 03:30:04;;;;;;;;;;;;;;;12.52;100.00;99495.31;5048686;28;20387;-78
2023/05/14 03:32:29;;;;;;;;;;;;;;;12.46;100.00;99498.56;5050351;28;19916;-79
2023/05/14 03:34:55;;;;;;;;;;;;;;;12.40;100.00;99488.59;5050086;28;20165;-78
2023/05/14 03:37:20;;;;;;;;;;;;;;;12.37;100.00;99494.19;5049566;28;19917;-78
2023/05/14 03:39:45;;;;;;;;;;;;;;;12.35;100.00;99490.91;5047615;28;20368;-78
2023/05/14 03:42:11;;;;;;;;;;;;;;;12.26;100.00;99486.53;5048440;28;19916;-78
2023/05/14 03:44:36;;;;;;;;;;;;;;;12.26;100.00;99491.81;5049563;28;19924;-78
2023/05/14 03:47:02;;;;;;;;;;;;;;;12.30;100.00;99486.09;5048615;28;20011;-77
2023/05/14 03:49:27;;;;;;;;;;;;;;;12.38;100.00;99490.56;5056772;28;20368;-78
2023/05/14 03:51:54;;;;;;;;;;;;;;;12.46;100.00;99493.28;5047869;28;20381;-78
2023/05/14 03:54:19;;;;;;;;;;;;;;;12.59;100.00;99496.34;5049499;28;19920;-78
2023/05/14 03:56:45;;;;;;;;;;;;;;;12.67;100.00;99495.53;5047357;28;19931;-78
2023/05/14 03:59:10;;;;;;;;;;;;;;;12.76;100.00;99499.06;5048165;28;20051;-78
2023/05/14 04:01:35;;;;;;;;;;;;;;;12.82;100.00;99493.97;5049332;28;19943;-78
2023/05/14 04:04:01;;;;;;;;;;;;;;;12.79;100.00;99499.56;5048353;28;20310;-77
2023/05/14 04:06:26;;;;;;;;;;;;;;;12.83;100.00;99494.81;5049674;28;20284;-78
2023/05/14 04:08:51;;;;;;;;;;;;;;;12.76;100.00;99488.47;5048821;28;19978;-78
2023/05/14 04:11:17;;;;;;;;;;;;;;;12.66;100.00;99500.00;5049161;28;19928;-79
2023/05/14 04:13:42;;;;;;;;;;;;;;;12.48;100.00;99493.13;5049152;28;20386;-78
2023/05/14 04:16:08;;;;;;;;;;;;;;;12.45;100.00;99488.97;5073197;28;19923;-79
2023/05/14 04:18:34;;;;;;;;;;;;;;;12.47;100.00;99484.34;5047720;28;19917;-79
2023/05/14 04:21:00;;;;;;;;;;;;;;;12.53;100.00;99491.69;5047979;28;20003;-79
2023/05/14 04:23:25;;;;;;;;;;;;;;;12.65;100.00;99498.38;5049250;28;19921;-78
2023/05/14 04:25:51;;;;;;;;;;;;;;;12.73;100.00;99494.91;5050019;28;20015;-78
2023/05/14 04:28:16;;;;;;;;;;;;;;;12.84;100.00;99497.28;5049279;28;19991;-78
2023/05/14 04:30:41;;;;;;;;;;;;;;;12.94;100.00;99498.00;5047676;28;20008;-78
2023/05/14 04:33:07;;;;;;;;;;;;;;;13.01;100.00;99506.16;5049439;28;19923;-78
2023/05/14 04:35:32;;;;;;;;;;;;;;;13.04;100.00;99506.66;5049465;28;19913;-77
2023/05/14 04:37:58;;;;;;;;;;;;;;;13.11;100.00;99505.03;5051918;28;19995;-78
2023/05/14 04:40:23;;;;;;;;;;;;;;;13.05;100.00;99504.81;5052685;28;19963;-78
2023/05/14 04:42:49;;;;;;;;;;;;;;;13.11;100.00;99509.50;5052739;28;19963;-78
2023/05/14 04:45:15;;;;;;;;;;;;;;;13.15;100.00;99508.19;5053454;28;19917;-78
2023/05/14 04:47:40;;;;;;;;;;;;;;;13.24;100.00;99511.72;5052849;28;19916;-78
2023/05/14 04:50:08;;;;;;;;;;;;;;;13.30;100.00;99514.56;5048860;28;20434;-78
2023/05/14 04:52:33;;;;;;;;;;;;;;;13.36;100.00;99519.22;5052935;28;20421;-77
2023/05/14 04:54:58;;;;;;;;;;;;;;;13.35;100.00;99516.72;5054188;28;19999;-77
2023/05/14 04:57:24;;;;;;;;;;;;;;;13.34;100.00;99518.53;5051148;28;19923;-77
2023/05/14 04:59:49;;;;;;;;;;;;;;;13.34;100.00;99523.00;5052454;28;19950;-77
2023/05/14 05:02:15;;;;;;;;;;;;;;;13.35;100.00;99522.84;5050593;28;20288;-77
2023/05/14 05:04:40;;;;;;;;;;;;;;;13.35;100.00;99525.50;5053017;28;19970;-76
2023/05/14 05:07:06;;;;;;;;;;;;;;;13.35;100.00;99522.84;5053541;28;20415;-77
2023/05/14 05:09:31;;;;;;;;;;;;;;;13.36;100.00;99529.81;5053096;28;19921;-77
2023/05/14 05:11:56;;;;;;;;;;;;;;;13.40;100.00;99531.16;5052400;28;20004;-77
2023/05/14 05:14:22;;;;;;;;;;;;;;;13.46;100.00;99533.16;5052684;28;20007;-77
2023/05/14 05:16:47;;;;;;;;;;;;;;;13.44;100.00;99536.94;5052448;28;19975;-76
2023/05/14 05:19:12;;;;;;;;;;;;;;;13.47;100.00;99537.47;5053003;28;19916;-77
2023/05/14 05:21:39;;;;;;;;;;;;;;;13.52;100.00;99540.47;5052708;28;19917;-76
2023/05/14 05:24:05;;;;;;;;;;;;;;;13.51;100.00;99540.63;5053494;28;19916;-77
2023/05/14 05:26:30;;;;;;;;;;;;;;;13.52;100.00;99539.63;5052833;28;19927;-77
2023/05/14 05:28:56;;;;;;;;;;;;;;;13.51;100.00;99533.50;5052141;28;19952;-77
2023/05/14 05:31:21;;;;;;;;;;;;;;;13.52;100.00;99545.75;5053367;28;19963;-77
2023/05/14 05:33:47;;;;;;;;;;;;;;;13.58;100.00;99538.16;5052967;28;19962;-77
2023/05/14 05:36:12;;;;;;;;;;;;;;;13.59;100.00;99539.81;5052937;28;20388;-79
2023/05/14 05:38:37;;;;;;;;;;;;;;;13.60;100.00;99541.47;5052328;28;20272;-77
2023/05/14 05:41:03;;;;;;;;;;;;;;;13.58;100.00;99540.81;5052314;28;19912;-78
2023/05/14 05:43:28;;;;;;;;;;;;;;;13.62;100.00;99539.47;5051871;28;19996;-78
2023/05/14 05:45:53;;;;;;;;;;;;;;;13.65;100.00;99531.22;5051785;28;19959;-78
2023/05/14 05:48:19;;;;;;;;;;;;;;;13.63;100.00;99535.84;5058448;28;20285;-78
2023/05/14 05:50:46;;;;;;;;;;;;;;;13.66;100.00;99543.47;5051536;28;19927;-77
2023/05/14 05:53:11;;;;;;;;;;;;;;;13.69;100.00;99540.50;5051720;28;20043;-77
2023/05/14 05:55:37;;;;;;;;;;;;;;;13.70;100.00;99536.84;5053347;28;20006;-77
2023/05/14 05:58:02;;;;;;;;;;;;;;;13.72;100.00;99542.84;5051909;28;19917;-76
2023/05/14 06:00:27;;;;;;;;;;;;;;;13.72;100.00;99537.53;5051608;28;20058;-77
2023/05/14 06:02:55;;;;;;;;;;;;;;;13.71;100.00;99530.56;5051572;28;19974;-76
2023/05/14 06:05:20;;;;;;;;;;;;;;;13.58;100.00;99532.84;5052185;28;20339;-77
2023/05/14 06:07:45;;;;;;;;;;;;;;;13.32;100.00;99528.47;5051629;28;19917;-78
2023/05/14 06:10:11;;;;;;;;;;;;;;;13.22;100.00;99522.47;5051493;28;19917;-78
2023/05/14 06:12:36;;;;;;;;;;;;;;;13.26;100.00;99529.09;5050081;28;19970;-79
2023/05/14 06:15:01;;;;;;;;;;;;;;;13.23;100.00;99536.56;5051112;28;20363;-77
2023/05/14 06:17:27;;;;;;;;;;;;;;;13.18;100.00;99526.44;5051367;28;19916;-78
2023/05/14 06:19:52;;;;;;;;;;;;;;;13.07;100.00;99529.34;5051243;28;19939;-78
2023/05/14 06:22:18;;;;;;;;;;;;;;;13.16;100.00;99533.72;5051650;28;19920;-78
2023/05/14 06:24:43;;;;;;;;;;;;;;;13.04;100.00;99519.06;5051173;28;19916;-78
2023/05/14 06:27:10;;;;;;;;;;;;;;;13.02;100.00;99521.84;5051395;28;19917;-78
2023/05/14 06:29:35;;;;;;;;;;;;;;;12.89;100.00;99524.13;5050849;28;19920;-78
2023/05/14 06:32:01;;;;;;;;;;;;;;;12.94;100.00;99523.66;5051124;28;19970;-78
2023/05/14 06:34:26;;;;;;;;;;;;;;;12.90;100.00;99525.78;5051358;28;19967;-75
2023/05/14 06:36:53;;;;;;;;;;;;;;;12.81;100.00;99523.25;5050828;28;19955;-76
2023/05/14 06:39:18;;;;;;;;;;;;;;;12.79;100.00;99519.91;5051341;28;19917;-77
2023/05/14 06:41:44;;;;;;;;;;;;;;;12.70;100.00;99517.25;5050754;28;19917;-78
2023/05/14 06:44:13;;;;;;;;;;;;;;;12.71;100.00;99521.56;5051315;28;19916;-79
2023/05/14 06:46:38;;;;;;;;;;;;;;;12.80;100.00;99532.19;5050397;28;19924;-78
2023/05/14 06:49:04;;;;;;;;;;;;;;;12.91;100.00;99534.56;5051061;28;19924;-77
2023/05/14 06:51:29;;;;;;;;;;;;;;;12.91;100.00;99529.25;5049444;28;19950;-78
2023/05/14 06:53:55;;;;;;;;;;;;;;;12.84;100.00;99533.53;5050931;28;20380;-79
2023/05/14 06:56:21;;;;;;;;;;;;;;;12.77;100.00;99528.03;5051169;28;19916;-79
2023/05/14 06:58:46;;;;;;;;;;;;;;;12.79;100.00;99527.88;5048556;28;20361;-78
2023/05/14 07:01:11;;;;;;;;;;;;;;;12.76;100.00;99512.31;5050088;28;19923;-76
2023/05/14 07:03:37;;;;;;;;;;;;;;;12.84;100.00;99512.38;5049975;28;20296;-77
2023/05/14 07:06:02;;;;;;;;;;;;;;;12.75;100.00;99518.59;5049797;28;20327;-77
2023/05/14 07:08:27;;;;;;;;;;;;;;;12.60;100.00;99516.53;5050384;28;20335;-77
2023/05/14 07:10:53;;;;;;;;;;;;;;;12.51;100.00;99506.03;5049497;28;19921;-77
2023/05/14 07:13:18;;;;;;;;;;;;;;;12.66;100.00;99504.50;5056441;28;19951;-76
2023/05/14 07:15:44;;;;;;;;;;;;;;;12.81;100.00;99507.38;5047294;28;19943;-77
2023/05/14 07:18:09;;;;;;;;;;;;;;;12.78;100.00;99497.09;5048865;28;20343;-74
2023/05/14 07:20:34;;;;;;;;;;;;;;;12.91;100.00;99492.19;5048252;28;19925;-76
2023/05/14 07:23:00;;;;;;;;;;;;;;;12.92;100.00;99488.53;5049894;28;19916;-76
2023/05/14 07:25:25;;;;;;;;;;;;;;;13.00;100.00;99483.28;5049859;28;19994;-76
2023/05/14 07:27:50;;;;;;;;;;;;;;;13.09;100.00;99474.38;5048983;28;20014;-77
2023/05/14 07:30:15;;;;;;;;;;;;;;;13.02;100.00;99473.34;5049620;28;19913;-77
2023/05/14 07:32:41;;;;;;;;;;;;;;;12.98;100.00;99472.84;5034077;28;19923;-77
2023/05/14 07:35:06;;;;;;;;;;;;;;;12.94;100.00;99486.56;5049633;28;19917;-78
2023/05/14 07:37:32;;;;;;;;;;;;;;;13.02;100.00;99489.25;5048667;28;19924;-78
2023/05/14 07:39:57;;;;;;;;;;;;;;;13.03;100.00;99490.91;5048954;28;19916;-76
2023/05/14 07:42:23;;;;;;;;;;;;;;;13.27;100.00;99488.38;5049056;28;20011;-77
2023/05/14 07:44:49;;;;;;;;;;;;;;;13.49;100.00;99482.44;5049792;28;19923;-77
2023/05/14 07:47:15;;;;;;;;;;;;;;;13.70;100.00;99489.13;5049336;28;20120;-77
2023/05/14 07:49:40;;;;;;;;;;;;;;;13.76;100.00;99485.81;5048953;28;20388;-76
2023/05/14 07:52:06;;;;;;;;;;;;;;;13.55;100.00;99488.91;5050952;28;19931;-74
2023/05/14 07:54:31;;;;;;;;;;;;;;;13.44;100.00;99487.41;5049338;28;19925;-77
2023/05/14 07:56:57;;;;;;;;;;;;;;;13.61;100.00;99484.81;5048138;28;19917;-78
2023/05/14 07:59:22;;;;;;;;;;;;;;;13.65;100.00;99491.44;5049079;28;20000;-78
2023/05/14 08:01:47;;;;;;;;;;;;;;;13.50;100.00;99489.41;5048478;28;19913;-76
2023/05/14 08:04:15;;;;;;;;;;;;;;;13.63;100.00;99482.81;5048864;28;19939;-77
2023/05/14 08:06:40;;;;;;;;;;;;;;;13.77;100.00;99483.00;5046422;28;19917;-78
2023/05/14 08:09:06;;;;;;;;;;;;;;;13.86;100.00;99481.16;5047711;28;19916;-77
2023/05/14 08:11:31;;;;;;;;;;;;;;;14.02;100.00;99483.81;5048292;28;19964;-80
2023/05/14 08:13:56;;;;;;;;;;;;;;;14.13;100.00;99480.84;5047200;28;19923;-79
2023/05/14 08:16:23;;;;;;;;;;;;;;;14.22;100.00;99479.00;5049172;28;19967;-77
2023/05/14 08:18:48;;;;;;;;;;;;;;;14.39;100.00;99485.13;5048571;28;19968;-78
2023/05/14 08:21:14;;;;;;;;;;;;;;;14.56;100.00;99470.81;5048250;28;20023;-77
2023/05/14 08:23:39;;;;;;;;;;;;;;;14.64;100.00;99479.63;5048126;28;19917;-76
2023/05/14 08:26:04;;;;;;;;;;;;;;;14.73;100.00;99483.06;5049314;28;19935;-75
2023/05/14 08:28:30;;;;;;;;;;;;;;;14.75;100.00;99475.75;5045554;28;19920;-77
2023/05/14 08:30:55;;;;;;;;;;;;;;;14.93;100.00;99478.19;5048988;28;19916;-77
2023/05/14 08:33:21;;;;;;;;;;;;;;;14.92;100.00;99487.97;5049555;28;19917;-78
2023/05/14 08:35:46;;;;;;;;;;;;;;;15.09;100.00;99476.28;5045404;28;19924;-77
2023/05/14 08:38:11;;;;;;;;;;;;;;;15.32;100.00;99484.28;5046544;28;20339;-78
2023/05/14 08:40:37;;;;;;;;;;;;;;;15.45;100.00;99479.25;5048299;28;20259;-77
2023/05/14 08:43:02;;;;;;;;;;;;;;;15.69;100.00;99480.94;5047561;28;20391;-78
2023/05/14 08:45:32;;;;;;;;;;;;;;;15.63;100.00;99486.97;5041896;28;19917;-79
2023/05/14 08:47:58;;;;;;;;;;;;;;;15.62;100.00;99480.00;5030958;28;19924;-78
2023/05/14 08:50:24;;;;;;;;;;;;;;;15.71;100.00;99484.25;5048827;28;19930;-77
2023/05/14 08:52:50;;;;;;;;;;;;;;;15.82;100.00;99483.84;5047806;28;19920;-78
2023/05/14 08:55:15;;;;;;;;;;;;;;;15.70;100.00;99482.59;5049165;28;20391;-78
2023/05/14 08:57:41;;;;;;;;;;;;;;;15.97;100.00;99479.38;5049010;28;19975;-78
2023/05/14 09:00:13;;;;;;;;;;;;;;;15.95;100.00;99470.78;5049019;28;20375;-78
2023/05/14 09:02:39;;;;;;;;;;;;;;;16.20;100.00;99471.38;5045645;28;20283;-78
2023/05/14 09:05:06;;;;;;;;;;;;;;;16.23;100.00;99468.34;5049028;28;20210;-78
2023/05/14 09:07:31;;;;;;;;;;;;;;;15.95;100.00;99461.97;5048114;28;19981;-78
2023/05/14 09:09:57;;;;;;;;;;;;;;;15.43;100.00;99465.28;5047757;28;19942;-78
2023/05/14 09:12:23;;;;;;;;;;;;;;;15.68;100.00;99455.34;5049351;28;19917;-78
2023/05/14 09:14:49;;;;;;;;;;;;;;;15.67;100.00;99466.97;5048155;28;19920;-78
2023/05/14 09:17:15;;;;;;;;;;;;;;;15.61;100.00;99464.22;5049345;28;20020;-78
2023/05/14 09:19:42;;;;;;;;;;;;;;;15.66;100.00;99454.72;5048225;28;20373;-78
2023/05/14 09:22:12;;;;;;;;;;;;;;;15.57;100.00;99461.09;5074171;28;20333;-78
2023/05/14 09:24:38;;;;;;;;;;;;;;;15.66;100.00;99453.88;5049754;28;19916;-79
2023/05/14 09:27:05;;;;;;;;;;;;;;;15.68;100.00;99442.03;5051112;28;20331;-79
2023/05/14 09:29:30;;;;;;;;;;;;;;;15.73;100.00;99439.66;5050813;28;19985;-78
2023/05/14 09:31:56;;;;;;;;;;;;;;;15.81;100.00;99438.78;5052043;28;20538;-76
2023/05/14 09:34:29;;;;;;;;;;;;;;;15.60;100.00;99450.09;5051824;28;20743;-77
2023/05/14 09:36:56;;;;;;;;;;;;;;;15.72;100.00;99448.69;5051246;28;19920;-77
2023/05/14 09:39:22;;;;;;;;;;;;;;;15.53;100.00;99449.97;5051415;28;19923;-75
2023/05/14 09:41:48;;;;;;;;;;;;;;;15.63;100.00;99438.25;5051324;28;19924;-80
2023/05/14 09:44:13;;;;;;;;;;;;;;;15.60;100.00;99436.81;5051678;28;19921;-79
2023/05/14 09:46:39;;;;;;;;;;;;;;;15.80;100.00;99429.97;5051696;28;20012;-79
2023/05/14 09:49:04;;;;;;;;;;;;;;;16.00;100.00;99429.47;5052187;28;20237;-79
2023/05/14 09:51:30;;;;;;;;;;;;;;;16.21;100.00;99426.94;5053354;28;20434;-80
2023/05/14 09:53:56;;;;;;;;;;;;;;;16.04;100.00;99422.78;5052140;28;19943;-78
2023/05/14 09:56:21;;;;;;;;;;;;;;;16.26;100.00;99427.22;5051617;28;20369;-79
2023/05/14 09:58:47;;;;;;;;;;;;;;;16.34;100.00;99421.81;5051525;28;19920;-78
2023/05/14 10:01:13;;;;;;;;;;;;;;;16.12;100.00;99423.53;5052769;28;20381;-79
2023/05/14 10:03:39;;;;;;;;;;;;;;;16.26;100.00;99414.72;5052722;28;20019;-79
2023/05/14 10:06:05;;;;;;;;;;;;;;;16.55;100.00;99408.56;5055031;28;19959;-81
2023/05/14 10:08:32;;;;;;;;;;;;;;;16.84;100.00;99406.94;5051845;28;20436;-80
2023/05/14 10:11:00;;;;;;;;;;;;;;;16.98;100.00;99390.09;5051294;28;19916;-78
2023/05/14 10:13:46;;;;;;;;;;;;;;;17.03;100.00;99395.69;5051395;28;20007;-77
2023/05/14 10:16:25;;;;;;;;;;;;;;;16.82;100.00;99399.13;5047093;28;19939;-76
2023/05/14 10:18:55;;;;;;;;;;;;;;;16.50;100.00;99389.66;5049239;28;19920;-80
2023/05/14 10:21:21;;;;;;;;;;;;;;;16.56;100.00;99386.25;5053033;28;19917;-77
2023/05/14 10:23:47;;;;;;;;;;;;;;;16.34;100.00;99395.19;5050879;28;19928;-76
2023/05/14 10:26:13;;;;;;;;;;;;;;;16.53;100.00;99389.31;5050215;28;20023;-76
2023/05/14 10:28:39;;;;;;;;;;;;;;;16.58;100.00;99378.94;5050564;28;20356;-76
2023/05/14 10:31:04;;;;;;;;;;;;;;;16.40;100.00;99383.81;5050825;28;20308;-76
2023/05/14 10:33:44;;;;;;;;;;;;;;;16.32;100.00;99381.22;4352881;28;10000812;-78
2023/05/14 10:36:10;;;;;;;;;;;;;;;16.04;100.00;99380.19;5045872;28;19921;-75
2023/05/14 10:38:36;;;;;;;;;;;;;;;16.18;100.00;99371.41;5048628;28;20413;-75
2023/05/14 10:41:03;;;;;;;;;;;;;;;16.29;100.00;99365.63;5048167;28;19913;-75
2023/05/14 10:43:29;;;;;;;;;;;;;;;16.35;100.00;99360.38;5047050;28;19926;-75
2023/05/14 10:45:55;;;;;;;;;;;;;;;16.40;100.00;99351.84;5047850;28;19928;-75
2023/05/14 10:48:21;;;;;;;;;;;;;;;16.56;100.00;99340.97;5049247;28;19920;-74
2023/05/14 10:50:47;;;;;;;;;;;;;;;16.36;100.00;99350.56;5048240;28;20277;-74
2023/05/14 10:53:12;;;;;;;;;;;;;;;16.36;100.00;99348.75;5048665;28;19949;-75
2023/05/14 10:55:38;;;;;;;;;;;;;;;16.34;100.00;99347.25;5045817;28;20280;-75
2023/05/14 10:58:04;;;;;;;;;;;;;;;16.43;100.00;99338.19;5047660;28;19924;-75
2023/05/14 11:00:32;;;;;;;;;;;;;;;16.62;100.00;99337.59;5074217;28;19920;-75
2023/05/14 11:02:57;;;;;;;;;;;;;;;16.62;100.00;99334.09;5047022;28;19921;-75
2023/05/14 11:05:26;;;;;;;;;;;;;;;16.69;100.00;99333.19;5048353;28;20269;-74
2023/05/14 11:07:54;;;;;;;;;;;;;;;16.88;100.00;99333.59;5046788;28;20307;-76
2023/05/14 11:10:20;;;;;;;;;;;;;;;16.91;100.00;99334.03;5045962;28;19920;-75
2023/05/14 11:12:47;;;;;;;;;;;;;;;17.10;100.00;99321.94;4697080;28;10000256;-77
2023/05/14 11:15:13;;;;;;;;;;;;;;;17.22;100.00;99309.75;5046128;28;19963;-76
2023/05/14 11:17:40;;;;;;;;;;;;;;;17.37;100.00;99313.19;5048911;28;20030;-75
2023/05/14 11:20:06;;;;;;;;;;;;;;;17.49;100.00;99313.50;5047368;28;20349;-76
2023/05/14 11:22:36;;;;;;;;;;;;;;;17.33;100.00;99309.22;5049291;28;19924;-74
2023/05/14 11:25:01;;;;;;;;;;;;;;;17.40;100.00;99307.44;5048652;28;19999;-77
2023/05/14 11:27:27;;;;;;;;;;;;;;;17.54;100.00;99303.06;5047949;28;20011;-74
2023/05/14 11:29:54;;;;;;;;;;;;;;;17.38;100.00;99298.81;5047266;28;19920;-74
2023/05/14 11:32:20;;;;;;;;;;;;;;;17.34;100.00;99284.22;5047734;28;19962;-75
2023/05/14 11:34:45;;;;;;;;;;;;;;;17.39;100.00;99284.47;5047301;28;19924;-76
2023/05/14 11:37:11;;;;;;;;;;;;;;;17.44;100.00;99281.19;5047624;28;20019;-76
2023/05/14 11:39:37;;;;;;;;;;;;;;;17.58;100.00;99283.78;5046015;28;20300;-76
2023/05/14 11:42:04;;;;;;;;;;;;;;;17.72;100.00;99281.25;4698580;28;10000122;-74
2023/05/14 11:44:33;;;;;;;;;;;;;;;17.86;100.00;99264.28;5047105;28;19920;-75
2023/05/14 11:47:00;;;;;;;;;;;;;;;18.06;100.00;99270.56;4348161;28;10000716;-76
2023/05/14 11:49:27;;;;;;;;;;;;;;;18.28;100.00;99268.63;5049664;28;19921;-76
2023/05/14 11:51:59;;;;;;;;;;;;;;;18.34;98.67;99265.16;5050158;28;19943;-76
2023/05/14 11:54:26;;;;;;;;;;;;;;;18.50;99.29;99266.63;5050131;28;19916;-76
2023/05/14 11:56:53;;;;;;;;;;;;;;;18.36;95.16;99260.44;5052270;28;19920;-75
2023/05/14 11:59:18;;;;;;;;;;;;;;;18.35;96.81;99253.44;5050388;28;19970;-75
2023/05/14 12:01:45;;;;;;;;;;;;;;;18.51;96.23;99252.25;5050230;28;20343;-76
2023/05/14 12:04:11;;;;;;;;;;;;;;;18.48;96.03;99242.00;5050482;28;19917;-78
2023/05/14 12:06:37;;;;;;;;;;;;;;;18.63;92.43;99246.16;5049888;28;20399;-78
2023/05/14 12:09:04;;;;;;;;;;;;;;;18.74;91.87;99236.72;5050200;28;19975;-76
2023/05/14 12:11:30;;;;;;;;;;;;;;;18.85;91.34;99238.78;5050072;28;19917;-74
2023/05/14 12:13:56;;;;;;;;;;;;;;;18.79;93.39;99235.09;5050271;28;19917;-75
2023/05/14 12:16:21;;;;;;;;;;;;;;;18.83;94.27;99227.50;5050577;28;20375;-75
2023/05/14 12:18:47;;;;;;;;;;;;;;;19.07;91.76;99226.91;5052809;28;19951;-75
2023/05/14 12:21:12;;;;;;;;;;;;;;;19.33;89.61;99225.25;5048257;28;19924;-77
2023/05/14 12:23:38;;;;;;;;;;;;;;;19.68;88.23;99224.00;5045582;28;19952;-78
2023/05/14 12:26:05;;;;;;;;;;;;;;;19.93;87.14;99227.66;5049867;28;19917;-77
2023/05/14 12:28:31;;;;;;;;;;;;;;;20.23;84.31;99211.03;5049677;28;19920;-78
2023/05/14 12:30:57;;;;;;;;;;;;;;;19.85;80.80;99214.47;5049704;28;19927;-79